sensor_id;sensor_type;location;lat;lon;timestamp;P1;durP1;ratioP1;P2;durP2;ratioP2
68870;SDS011;55906;52.278;6.808;2022-08-30T00:01:28;4.40;;;3.40;;
68870;SDS011;55906;52.278;6.808;2022-08-30T00:03:55;4.40;;;3.65;;
68870;SDS011;55906;52.278;6.808;2022-08-30T00:06:24;4.87;;;3.37;;
68870;SDS011;55906;52.278;6.808;2022-08-30T00:08:52;5.60;;;3.88;;
68870;SDS011;55906;52.278;6.808;2022-08-30T00:11:20;5.10;;;3.60;;
68870;SDS011;55906;52.278;6.808;2022-08-30T00:13:51;5.18;;;3.35;;
68870;SDS011;55906;52.278;6.808;2022-08-30T00:16:20;5.97;;;4.10;;
68870;SDS011;55906;52.278;6.808;2022-08-30T00:18:49;4.60;;;3.27;;
68870;SDS011;55906;52.278;6.808;2022-08-30T00:21:16;5.00;;;4.18;;
68870;SDS011;55906;52.278;6.808;2022-08-30T00:23:43;5.07;;;3.55;;
68870;SDS011;55906;52.278;6.808;2022-08-30T00:26:09;4.85;;;4.00;;
68870;SDS011;55906;52.278;6.808;2022-08-30T00:28:36;5.57;;;4.68;;
68870;SDS011;55906;52.278;6.808;2022-08-30T00:31:03;5.30;;;4.03;;
68870;SDS011;55906;52.278;6.808;2022-08-30T00:33:30;5.18;;;4.03;;
68870;SDS011;55906;52.278;6.808;2022-08-30T00:35:58;6.30;;;4.78;;
68870;SDS011;55906;52.278;6.808;2022-08-30T00:38:25;5.88;;;4.32;;
68870;SDS011;55906;52.278;6.808;2022-08-30T00:40:52;5.07;;;4.05;;
68870;SDS011;55906;52.278;6.808;2022-08-30T00:43:20;6.53;;;4.87;;
68870;SDS011;55906;52.278;6.808;2022-08-30T00:45:48;5.68;;;4.35;;
68870;SDS011;55906;52.278;6.808;2022-08-30T00:48:16;6.78;;;4.75;;
68870;SDS011;55906;52.278;6.808;2022-08-30T00:50:44;6.22;;;4.13;;
68870;SDS011;55906;52.278;6.808;2022-08-30T00:53:15;5.38;;;4.03;;
68870;SDS011;55906;52.278;6.808;2022-08-30T00:55:46;5.80;;;3.37;;
68870;SDS011;55906;52.278;6.808;2022-08-30T00:58:16;5.88;;;4.05;;
68870;SDS011;55906;52.278;6.808;2022-08-30T01:00:46;5.57;;;4.28;;
68870;SDS011;55906;52.278;6.808;2022-08-30T01:03:14;7.72;;;5.07;;
68870;SDS011;55906;52.278;6.808;2022-08-30T01:05:41;6.22;;;4.50;;
68870;SDS011;55906;52.278;6.808;2022-08-30T01:08:08;7.60;;;5.07;;
68870;SDS011;55906;52.278;6.808;2022-08-30T01:10:36;5.55;;;3.90;;
68870;SDS011;55906;52.278;6.808;2022-08-30T01:13:04;5.47;;;4.40;;
68870;SDS011;55906;52.278;6.808;2022-08-30T01:15:31;6.05;;;5.18;;
68870;SDS011;55906;52.278;6.808;2022-08-30T01:17:59;6.38;;;4.80;;
68870;SDS011;55906;52.278;6.808;2022-08-30T01:20:28;6.17;;;5.07;;
68870;SDS011;55906;52.278;6.808;2022-08-30T01:23:05;7.97;;;4.80;;
68870;SDS011;55906;52.278;6.808;2022-08-30T01:25:36;6.70;;;5.05;;
68870;SDS011;55906;52.278;6.808;2022-08-30T01:28:06;6.28;;;4.57;;
68870;SDS011;55906;52.278;6.808;2022-08-30T01:30:36;5.75;;;4.47;;
68870;SDS011;55906;52.278;6.808;2022-08-30T01:33:04;5.90;;;4.57;;
68870;SDS011;55906;52.278;6.808;2022-08-30T01:35:34;5.85;;;4.85;;
68870;SDS011;55906;52.278;6.808;2022-08-30T01:38:09;6.30;;;4.68;;
68870;SDS011;55906;52.278;6.808;2022-08-30T01:40:38;6.53;;;4.97;;
68870;SDS011;55906;52.278;6.808;2022-08-30T01:43:04;5.97;;;4.97;;
68870;SDS011;55906;52.278;6.808;2022-08-30T01:45:32;5.00;;;3.70;;
68870;SDS011;55906;52.278;6.808;2022-08-30T01:47:58;6.45;;;4.40;;
68870;SDS011;55906;52.278;6.808;2022-08-30T01:50:25;5.72;;;4.65;;
68870;SDS011;55906;52.278;6.808;2022-08-30T01:52:52;6.45;;;3.85;;
68870;SDS011;55906;52.278;6.808;2022-08-30T01:55:20;6.72;;;5.13;;
68870;SDS011;55906;52.278;6.808;2022-08-30T01:57:47;5.40;;;3.80;;
68870;SDS011;55906;52.278;6.808;2022-08-30T02:00:14;5.43;;;4.60;;
68870;SDS011;55906;52.278;6.808;2022-08-30T02:02:41;6.18;;;4.30;;
68870;SDS011;55906;52.278;6.808;2022-08-30T02:05:09;6.28;;;4.43;;
68870;SDS011;55906;52.278;6.808;2022-08-30T02:07:36;4.95;;;3.97;;
68870;SDS011;55906;52.278;6.808;2022-08-30T02:10:03;4.90;;;3.90;;
68870;SDS011;55906;52.278;6.808;2022-08-30T02:12:31;4.82;;;3.78;;
68870;SDS011;55906;52.278;6.808;2022-08-30T02:14:59;4.20;;;3.22;;
68870;SDS011;55906;52.278;6.808;2022-08-30T02:17:25;4.90;;;3.35;;
68870;SDS011;55906;52.278;6.808;2022-08-30T02:19:52;4.85;;;4.00;;
68870;SDS011;55906;52.278;6.808;2022-08-30T02:22:19;4.50;;;3.20;;
68870;SDS011;55906;52.278;6.808;2022-08-30T02:24:45;4.35;;;3.42;;
68870;SDS011;55906;52.278;6.808;2022-08-30T02:27:12;5.28;;;3.60;;
68870;SDS011;55906;52.278;6.808;2022-08-30T02:29:40;4.97;;;4.00;;
68870;SDS011;55906;52.278;6.808;2022-08-30T02:32:07;4.65;;;3.50;;
68870;SDS011;55906;52.278;6.808;2022-08-30T02:34:33;4.67;;;3.70;;
68870;SDS011;55906;52.278;6.808;2022-08-30T02:37:00;4.40;;;3.42;;
68870;SDS011;55906;52.278;6.808;2022-08-30T02:39:27;5.05;;;3.95;;
68870;SDS011;55906;52.278;6.808;2022-08-30T02:41:53;5.78;;;3.70;;
68870;SDS011;55906;52.278;6.808;2022-08-30T02:44:20;5.13;;;3.78;;
68870;SDS011;55906;52.278;6.808;2022-08-30T02:46:49;5.50;;;3.70;;
68870;SDS011;55906;52.278;6.808;2022-08-30T02:49:16;6.10;;;4.30;;
68870;SDS011;55906;52.278;6.808;2022-08-30T02:51:42;6.72;;;4.30;;
68870;SDS011;55906;52.278;6.808;2022-08-30T02:54:09;5.93;;;4.75;;
68870;SDS011;55906;52.278;6.808;2022-08-30T02:56:39;5.97;;;4.50;;
68870;SDS011;55906;52.278;6.808;2022-08-30T02:59:06;6.70;;;4.57;;
68870;SDS011;55906;52.278;6.808;2022-08-30T03:01:33;6.90;;;4.57;;
68870;SDS011;55906;52.278;6.808;2022-08-30T03:04:04;6.70;;;5.57;;
68870;SDS011;55906;52.278;6.808;2022-08-30T03:06:31;6.93;;;5.18;;
68870;SDS011;55906;52.278;6.808;2022-08-30T03:08:57;7.90;;;6.78;;
68870;SDS011;55906;52.278;6.808;2022-08-30T03:11:24;9.83;;;4.83;;
68870;SDS011;55906;52.278;6.808;2022-08-30T03:13:50;6.93;;;5.90;;
68870;SDS011;55906;52.278;6.808;2022-08-30T03:16:17;6.60;;;5.57;;
68870;SDS011;55906;52.278;6.808;2022-08-30T03:18:45;7.68;;;5.95;;
68870;SDS011;55906;52.278;6.808;2022-08-30T03:21:14;6.68;;;5.70;;
68870;SDS011;55906;52.278;6.808;2022-08-30T03:23:42;6.37;;;4.97;;
68870;SDS011;55906;52.278;6.808;2022-08-30T03:26:09;6.10;;;4.90;;
68870;SDS011;55906;52.278;6.808;2022-08-30T03:28:38;6.70;;;5.57;;
68870;SDS011;55906;52.278;6.808;2022-08-30T03:31:05;8.00;;;5.65;;
68870;SDS011;55906;52.278;6.808;2022-08-30T03:33:32;9.20;;;6.80;;
68870;SDS011;55906;52.278;6.808;2022-08-30T03:35:59;7.00;;;5.90;;
68870;SDS011;55906;52.278;6.808;2022-08-30T03:38:30;7.28;;;5.72;;
68870;SDS011;55906;52.278;6.808;2022-08-30T03:41:01;7.13;;;5.78;;
68870;SDS011;55906;52.278;6.808;2022-08-30T03:43:28;8.32;;;5.88;;
68870;SDS011;55906;52.278;6.808;2022-08-30T03:45:57;7.57;;;5.93;;
68870;SDS011;55906;52.278;6.808;2022-08-30T03:48:24;9.03;;;5.87;;
68870;SDS011;55906;52.278;6.808;2022-08-30T03:50:51;6.35;;;5.03;;
68870;SDS011;55906;52.278;6.808;2022-08-30T03:53:17;6.43;;;4.70;;
68870;SDS011;55906;52.278;6.808;2022-08-30T03:55:45;6.65;;;5.07;;
68870;SDS011;55906;52.278;6.808;2022-08-30T03:58:12;6.75;;;5.05;;
68870;SDS011;55906;52.278;6.808;2022-08-30T04:00:38;7.80;;;5.30;;
68870;SDS011;55906;52.278;6.808;2022-08-30T04:03:05;7.45;;;5.72;;
68870;SDS011;55906;52.278;6.808;2022-08-30T04:05:32;6.88;;;5.72;;
68870;SDS011;55906;52.278;6.808;2022-08-30T04:07:58;7.00;;;6.07;;
68870;SDS011;55906;52.278;6.808;2022-08-30T04:10:25;6.70;;;4.70;;
68870;SDS011;55906;52.278;6.808;2022-08-30T04:12:53;7.77;;;5.40;;
68870;SDS011;55906;52.278;6.808;2022-08-30T04:15:20;6.40;;;5.03;;
68870;SDS011;55906;52.278;6.808;2022-08-30T04:17:47;6.72;;;5.70;;
68870;SDS011;55906;52.278;6.808;2022-08-30T04:20:14;7.32;;;5.95;;
68870;SDS011;55906;52.278;6.808;2022-08-30T04:22:41;6.30;;;5.43;;
68870;SDS011;55906;52.278;6.808;2022-08-30T04:25:08;7.33;;;4.70;;
68870;SDS011;55906;52.278;6.808;2022-08-30T04:27:35;6.50;;;5.18;;
68870;SDS011;55906;52.278;6.808;2022-08-30T04:30:04;8.70;;;6.20;;
68870;SDS011;55906;52.278;6.808;2022-08-30T04:32:32;6.80;;;5.47;;
68870;SDS011;55906;52.278;6.808;2022-08-30T04:34:59;6.65;;;5.05;;
68870;SDS011;55906;52.278;6.808;2022-08-30T04:37:26;7.10;;;4.93;;
68870;SDS011;55906;52.278;6.808;2022-08-30T04:39:54;5.85;;;4.50;;
68870;SDS011;55906;52.278;6.808;2022-08-30T04:42:21;6.85;;;4.95;;
68870;SDS011;55906;52.278;6.808;2022-08-30T04:44:48;7.25;;;5.25;;
68870;SDS011;55906;52.278;6.808;2022-08-30T04:47:16;5.35;;;4.57;;
68870;SDS011;55906;52.278;6.808;2022-08-30T04:49:43;5.60;;;4.63;;
68870;SDS011;55906;52.278;6.808;2022-08-30T04:52:09;5.28;;;4.20;;
68870;SDS011;55906;52.278;6.808;2022-08-30T04:54:36;6.72;;;5.63;;
68870;SDS011;55906;52.278;6.808;2022-08-30T04:57:04;6.45;;;4.90;;
68870;SDS011;55906;52.278;6.808;2022-08-30T04:59:31;5.80;;;4.72;;
68870;SDS011;55906;52.278;6.808;2022-08-30T05:01:58;5.90;;;4.70;;
68870;SDS011;55906;52.278;6.808;2022-08-30T05:04:26;5.78;;;4.70;;
68870;SDS011;55906;52.278;6.808;2022-08-30T05:06:52;6.15;;;4.45;;
68870;SDS011;55906;52.278;6.808;2022-08-30T05:09:19;6.07;;;4.82;;
68870;SDS011;55906;52.278;6.808;2022-08-30T05:11:46;7.65;;;5.35;;
68870;SDS011;55906;52.278;6.808;2022-08-30T05:14:13;5.30;;;4.20;;
68870;SDS011;55906;52.278;6.808;2022-08-30T05:16:40;6.43;;;4.82;;
68870;SDS011;55906;52.278;6.808;2022-08-30T05:19:07;6.60;;;5.90;;
68870;SDS011;55906;52.278;6.808;2022-08-30T05:21:35;5.80;;;4.93;;
68870;SDS011;55906;52.278;6.808;2022-08-30T05:24:04;5.05;;;4.20;;
68870;SDS011;55906;52.278;6.808;2022-08-30T05:26:32;5.93;;;4.80;;
68870;SDS011;55906;52.278;6.808;2022-08-30T05:29:02;6.60;;;4.47;;
68870;SDS011;55906;52.278;6.808;2022-08-30T05:31:30;5.90;;;4.53;;
68870;SDS011;55906;52.278;6.808;2022-08-30T05:33:58;6.40;;;4.70;;
68870;SDS011;55906;52.278;6.808;2022-08-30T05:36:25;6.25;;;4.40;;
68870;SDS011;55906;52.278;6.808;2022-08-30T05:38:55;7.43;;;4.37;;
68870;SDS011;55906;52.278;6.808;2022-08-30T05:41:22;5.55;;;4.43;;
68870;SDS011;55906;52.278;6.808;2022-08-30T05:43:51;6.38;;;4.63;;
68870;SDS011;55906;52.278;6.808;2022-08-30T05:46:18;6.45;;;4.25;;
68870;SDS011;55906;52.278;6.808;2022-08-30T05:48:46;5.65;;;4.50;;
68870;SDS011;55906;52.278;6.808;2022-08-30T05:51:17;5.90;;;4.10;;
68870;SDS011;55906;52.278;6.808;2022-08-30T05:53:45;7.82;;;4.65;;
68870;SDS011;55906;52.278;6.808;2022-08-30T05:56:15;6.22;;;5.03;;
68870;SDS011;55906;52.278;6.808;2022-08-30T05:58:43;6.72;;;4.03;;
68870;SDS011;55906;52.278;6.808;2022-08-30T06:01:17;7.90;;;4.75;;
68870;SDS011;55906;52.278;6.808;2022-08-30T06:03:45;5.90;;;4.17;;
68870;SDS011;55906;52.278;6.808;2022-08-30T06:06:12;6.50;;;4.53;;
68870;SDS011;55906;52.278;6.808;2022-08-30T06:08:38;5.43;;;4.35;;
68870;SDS011;55906;52.278;6.808;2022-08-30T06:11:05;6.65;;;4.45;;
68870;SDS011;55906;52.278;6.808;2022-08-30T06:13:33;6.72;;;5.20;;
68870;SDS011;55906;52.278;6.808;2022-08-30T06:15:59;6.10;;;4.77;;
68870;SDS011;55906;52.278;6.808;2022-08-30T06:18:26;5.78;;;4.85;;
68870;SDS011;55906;52.278;6.808;2022-08-30T06:20:53;5.72;;;4.35;;
68870;SDS011;55906;52.278;6.808;2022-08-30T06:23:19;7.60;;;4.68;;
68870;SDS011;55906;52.278;6.808;2022-08-30T06:25:46;5.53;;;4.45;;
68870;SDS011;55906;52.278;6.808;2022-08-30T06:28:13;4.97;;;3.70;;
68870;SDS011;55906;52.278;6.808;2022-08-30T06:30:41;6.18;;;3.63;;
68870;SDS011;55906;52.278;6.808;2022-08-30T06:33:08;6.45;;;4.22;;
68870;SDS011;55906;52.278;6.808;2022-08-30T06:35:35;6.13;;;4.28;;
68870;SDS011;55906;52.278;6.808;2022-08-30T06:38:03;7.25;;;4.45;;
68870;SDS011;55906;52.278;6.808;2022-08-30T06:40:30;8.97;;;4.23;;
68870;SDS011;55906;52.278;6.808;2022-08-30T06:42:56;7.15;;;4.75;;
68870;SDS011;55906;52.278;6.808;2022-08-30T06:45:23;7.05;;;5.05;;
68870;SDS011;55906;52.278;6.808;2022-08-30T06:47:51;5.90;;;4.03;;
68870;SDS011;55906;52.278;6.808;2022-08-30T06:50:18;7.60;;;4.25;;
68870;SDS011;55906;52.278;6.808;2022-08-30T06:52:45;5.43;;;3.63;;
68870;SDS011;55906;52.278;6.808;2022-08-30T06:55:13;5.85;;;4.43;;
68870;SDS011;55906;52.278;6.808;2022-08-30T06:57:41;7.30;;;4.30;;
68870;SDS011;55906;52.278;6.808;2022-08-30T07:00:09;4.90;;;3.67;;
68870;SDS011;55906;52.278;6.808;2022-08-30T07:02:37;6.72;;;3.92;;
68870;SDS011;55906;52.278;6.808;2022-08-30T07:05:06;5.97;;;3.47;;
68870;SDS011;55906;52.278;6.808;2022-08-30T07:07:35;6.00;;;3.60;;
68870;SDS011;55906;52.278;6.808;2022-08-30T07:10:02;10.55;;;3.55;;
68870;SDS011;55906;52.278;6.808;2022-08-30T07:12:30;4.93;;;3.25;;
68870;SDS011;55906;52.278;6.808;2022-08-30T07:14:57;4.50;;;3.38;;
68870;SDS011;55906;52.278;6.808;2022-08-30T07:17:23;7.27;;;3.50;;
68870;SDS011;55906;52.278;6.808;2022-08-30T07:20:09;6.00;;;3.00;;
68870;SDS011;55906;52.278;6.808;2022-08-30T07:22:36;9.52;;;3.40;;
68870;SDS011;55906;52.278;6.808;2022-08-30T07:25:02;4.18;;;2.83;;
68870;SDS011;55906;52.278;6.808;2022-08-30T07:27:29;5.38;;;2.80;;
68870;SDS011;55906;52.278;6.808;2022-08-30T07:29:56;5.77;;;3.20;;
68870;SDS011;55906;52.278;6.808;2022-08-30T07:32:25;4.72;;;2.90;;
68870;SDS011;55906;52.278;6.808;2022-08-30T07:34:51;6.35;;;2.88;;
68870;SDS011;55906;52.278;6.808;2022-08-30T07:37:19;4.82;;;3.08;;
68870;SDS011;55906;52.278;6.808;2022-08-30T07:39:46;6.18;;;2.65;;
68870;SDS011;55906;52.278;6.808;2022-08-30T07:42:12;6.23;;;2.90;;
68870;SDS011;55906;52.278;6.808;2022-08-30T07:44:39;5.97;;;2.83;;
68870;SDS011;55906;52.278;6.808;2022-08-30T07:47:06;5.55;;;3.00;;
68870;SDS011;55906;52.278;6.808;2022-08-30T07:49:32;5.68;;;2.35;;
68870;SDS011;55906;52.278;6.808;2022-08-30T07:51:59;4.65;;;2.55;;
68870;SDS011;55906;52.278;6.808;2022-08-30T07:54:27;4.50;;;2.30;;
68870;SDS011;55906;52.278;6.808;2022-08-30T07:56:53;4.30;;;2.50;;
68870;SDS011;55906;52.278;6.808;2022-08-30T07:59:20;4.65;;;2.72;;
68870;SDS011;55906;52.278;6.808;2022-08-30T08:01:47;5.05;;;2.63;;
68870;SDS011;55906;52.278;6.808;2022-08-30T08:04:14;4.82;;;2.80;;
68870;SDS011;55906;52.278;6.808;2022-08-30T08:06:40;4.37;;;2.53;;
68870;SDS011;55906;52.278;6.808;2022-08-30T08:09:09;4.45;;;2.55;;
68870;SDS011;55906;52.278;6.808;2022-08-30T08:11:37;4.72;;;2.13;;
68870;SDS011;55906;52.278;6.808;2022-08-30T08:14:05;4.40;;;1.92;;
68870;SDS011;55906;52.278;6.808;2022-08-30T08:16:32;4.93;;;2.15;;
68870;SDS011;55906;52.278;6.808;2022-08-30T08:19:00;3.50;;;1.97;;
68870;SDS011;55906;52.278;6.808;2022-08-30T08:21:27;4.95;;;1.98;;
68870;SDS011;55906;52.278;6.808;2022-08-30T08:23:54;6.65;;;2.25;;
68870;SDS011;55906;52.278;6.808;2022-08-30T08:26:21;4.38;;;2.38;;
68870;SDS011;55906;52.278;6.808;2022-08-30T08:28:49;4.60;;;1.92;;
68870;SDS011;55906;52.278;6.808;2022-08-30T08:31:16;4.00;;;1.73;;
68870;SDS011;55906;52.278;6.808;2022-08-30T08:33:44;5.53;;;2.10;;
68870;SDS011;55906;52.278;6.808;2022-08-30T08:36:10;4.93;;;2.13;;
68870;SDS011;55906;52.278;6.808;2022-08-30T08:38:37;4.57;;;2.03;;
68870;SDS011;55906;52.278;6.808;2022-08-30T08:41:05;4.72;;;1.73;;
68870;SDS011;55906;52.278;6.808;2022-08-30T08:43:35;4.03;;;1.80;;
68870;SDS011;55906;52.278;6.808;2022-08-30T08:46:04;7.55;;;1.83;;
68870;SDS011;55906;52.278;6.808;2022-08-30T08:48:38;4.68;;;1.50;;
68870;SDS011;55906;52.278;6.808;2022-08-30T08:51:08;3.88;;;1.50;;
68870;SDS011;55906;52.278;6.808;2022-08-30T08:53:54;4.07;;;1.58;;
68870;SDS011;55906;52.278;6.808;2022-08-30T08:56:25;3.33;;;1.20;;
68870;SDS011;55906;52.278;6.808;2022-08-30T08:58:53;3.85;;;1.40;;
68870;SDS011;55906;52.278;6.808;2022-08-30T09:01:23;3.08;;;1.23;;
68870;SDS011;55906;52.278;6.808;2022-08-30T09:03:52;3.38;;;1.20;;
68870;SDS011;55906;52.278;6.808;2022-08-30T09:06:22;6.72;;;1.40;;
68870;SDS011;55906;52.278;6.808;2022-08-30T09:08:57;3.20;;;1.20;;
68870;SDS011;55906;52.278;6.808;2022-08-30T09:11:25;3.42;;;1.10;;
68870;SDS011;55906;52.278;6.808;2022-08-30T09:13:53;4.20;;;1.30;;
68870;SDS011;55906;52.278;6.808;2022-08-30T09:19:26;4.97;;;1.15;;
68870;SDS011;55906;52.278;6.808;2022-08-30T09:22:03;4.73;;;1.20;;
68870;SDS011;55906;52.278;6.808;2022-08-30T09:24:46;5.22;;;1.20;;
68870;SDS011;55906;52.278;6.808;2022-08-30T09:27:18;3.20;;;1.10;;
68870;SDS011;55906;52.278;6.808;2022-08-30T09:29:58;4.88;;;1.20;;
68870;SDS011;55906;52.278;6.808;2022-08-30T09:32:29;3.30;;;1.20;;
68870;SDS011;55906;52.278;6.808;2022-08-30T09:34:59;4.13;;;1.30;;
68870;SDS011;55906;52.278;6.808;2022-08-30T09:37:27;3.05;;;1.10;;
68870;SDS011;55906;52.278;6.808;2022-08-30T09:40:08;3.88;;;1.10;;
68870;SDS011;55906;52.278;6.808;2022-08-30T09:42:38;3.40;;;1.10;;
68870;SDS011;55906;52.278;6.808;2022-08-30T09:45:09;4.13;;;1.10;;
68870;SDS011;55906;52.278;6.808;2022-08-30T09:47:45;4.37;;;1.00;;
68870;SDS011;55906;52.278;6.808;2022-08-30T09:50:13;3.58;;;1.10;;
68870;SDS011;55906;52.278;6.808;2022-08-30T09:55:46;3.95;;;0.90;;
68870;SDS011;55906;52.278;6.808;2022-08-30T09:58:20;2.85;;;0.93;;
68870;SDS011;55906;52.278;6.808;2022-08-30T10:00:55;3.90;;;0.90;;
68870;SDS011;55906;52.278;6.808;2022-08-30T10:03:31;3.50;;;1.00;;
68870;SDS011;55906;52.278;6.808;2022-08-30T10:06:07;3.10;;;1.00;;
68870;SDS011;55906;52.278;6.808;2022-08-30T10:08:43;2.83;;;0.80;;
68870;SDS011;55906;52.278;6.808;2022-08-30T10:11:22;4.22;;;0.90;;
68870;SDS011;55906;52.278;6.808;2022-08-30T10:14:03;3.10;;;0.80;;
68870;SDS011;55906;52.278;6.808;2022-08-30T10:16:44;3.33;;;0.90;;
68870;SDS011;55906;52.278;6.808;2022-08-30T10:19:25;3.30;;;1.00;;
68870;SDS011;55906;52.278;6.808;2022-08-30T10:22:12;7.07;;;1.00;;
68870;SDS011;55906;52.278;6.808;2022-08-30T10:24:42;4.43;;;1.20;;
68870;SDS011;55906;52.278;6.808;2022-08-30T10:27:12;3.77;;;1.03;;
68870;SDS011;55906;52.278;6.808;2022-08-30T10:29:43;2.72;;;0.80;;
68870;SDS011;55906;52.278;6.808;2022-08-30T10:32:14;2.85;;;0.70;;
68870;SDS011;55906;52.278;6.808;2022-08-30T10:34:47;5.15;;;0.95;;
68870;SDS011;55906;52.278;6.808;2022-08-30T10:37:20;3.33;;;0.90;;
68870;SDS011;55906;52.278;6.808;2022-08-30T10:39:51;2.40;;;0.80;;
68870;SDS011;55906;52.278;6.808;2022-08-30T10:42:20;2.42;;;0.77;;
68870;SDS011;55906;52.278;6.808;2022-08-30T10:44:51;2.88;;;0.80;;
68870;SDS011;55906;52.278;6.808;2022-08-30T10:47:27;3.15;;;0.80;;
68870;SDS011;55906;52.278;6.808;2022-08-30T10:50:04;3.80;;;1.13;;
68870;SDS011;55906;52.278;6.808;2022-08-30T10:52:37;3.27;;;0.70;;
68870;SDS011;55906;52.278;6.808;2022-08-30T10:55:09;3.22;;;0.80;;
68870;SDS011;55906;52.278;6.808;2022-08-30T10:57:39;3.97;;;0.80;;
68870;SDS011;55906;52.278;6.808;2022-08-30T11:00:08;3.80;;;0.80;;
68870;SDS011;55906;52.278;6.808;2022-08-30T11:05:54;2.53;;;0.73;;
68870;SDS011;55906;52.278;6.808;2022-08-30T11:08:42;3.05;;;0.90;;
68870;SDS011;55906;52.278;6.808;2022-08-30T11:11:19;3.65;;;0.80;;
68870;SDS011;55906;52.278;6.808;2022-08-30T11:13:55;3.20;;;0.70;;
68870;SDS011;55906;52.278;6.808;2022-08-30T11:16:33;3.38;;;0.80;;
68870;SDS011;55906;52.278;6.808;2022-08-30T11:19:02;4.20;;;0.90;;
68870;SDS011;55906;52.278;6.808;2022-08-30T11:21:41;5.65;;;0.93;;
68870;SDS011;55906;52.278;6.808;2022-08-30T11:24:10;4.60;;;0.70;;
68870;SDS011;55906;52.278;6.808;2022-08-30T11:26:51;3.03;;;0.75;;
68870;SDS011;55906;52.278;6.808;2022-08-30T11:29:29;4.13;;;0.80;;
68870;SDS011;55906;52.278;6.808;2022-08-30T11:31:59;3.20;;;0.70;;
68870;SDS011;55906;52.278;6.808;2022-08-30T11:34:53;2.55;;;0.60;;
68870;SDS011;55906;52.278;6.808;2022-08-30T11:37:36;2.65;;;0.80;;
68870;SDS011;55906;52.278;6.808;2022-08-30T11:40:07;2.80;;;0.75;;
68870;SDS011;55906;52.278;6.808;2022-08-30T11:42:49;2.45;;;0.70;;
68870;SDS011;55906;52.278;6.808;2022-08-30T11:51:11;3.97;;;0.80;;
68870;SDS011;55906;52.278;6.808;2022-08-30T11:53:58;3.40;;;0.80;;
68870;SDS011;55906;52.278;6.808;2022-08-30T11:56:34;4.35;;;0.70;;
68870;SDS011;55906;52.278;6.808;2022-08-30T11:59:17;2.20;;;0.60;;
68870;SDS011;55906;52.278;6.808;2022-08-30T12:01:51;2.78;;;0.73;;
68870;SDS011;55906;52.278;6.808;2022-08-30T12:04:28;2.67;;;0.80;;
68870;SDS011;55906;52.278;6.808;2022-08-30T12:07:03;8.63;;;0.88;;
68870;SDS011;55906;52.278;6.808;2022-08-30T12:12:42;3.30;;;0.60;;
68870;SDS011;55906;52.278;6.808;2022-08-30T12:21:12;2.75;;;0.60;;
68870;SDS011;55906;52.278;6.808;2022-08-30T12:23:52;3.10;;;0.60;;
68870;SDS011;55906;52.278;6.808;2022-08-30T12:26:34;2.47;;;0.50;;
68870;SDS011;55906;52.278;6.808;2022-08-30T12:29:08;3.47;;;0.68;;
68870;SDS011;55906;52.278;6.808;2022-08-30T12:31:42;1.83;;;0.60;;
68870;SDS011;55906;52.278;6.808;2022-08-30T12:34:16;2.80;;;0.70;;
68870;SDS011;55906;52.278;6.808;2022-08-30T12:36:51;3.13;;;0.57;;
68870;SDS011;55906;52.278;6.808;2022-08-30T12:39:22;2.07;;;0.53;;
68870;SDS011;55906;52.278;6.808;2022-08-30T12:41:51;4.30;;;0.60;;
68870;SDS011;55906;52.278;6.808;2022-08-30T12:44:19;3.22;;;0.70;;
68870;SDS011;55906;52.278;6.808;2022-08-30T12:46:48;4.13;;;0.73;;
68870;SDS011;55906;52.278;6.808;2022-08-30T12:49:18;3.33;;;0.60;;
68870;SDS011;55906;52.278;6.808;2022-08-30T12:51:45;2.80;;;0.50;;
68870;SDS011;55906;52.278;6.808;2022-08-30T12:54:14;2.95;;;0.60;;
68870;SDS011;55906;52.278;6.808;2022-08-30T12:56:44;2.75;;;0.55;;
68870;SDS011;55906;52.278;6.808;2022-08-30T13:02:22;2.83;;;0.60;;
68870;SDS011;55906;52.278;6.808;2022-08-30T13:04:50;2.60;;;0.50;;
68870;SDS011;55906;52.278;6.808;2022-08-30T13:07:26;3.05;;;0.70;;
68870;SDS011;55906;52.278;6.808;2022-08-30T13:09:59;2.70;;;0.60;;
68870;SDS011;55906;52.278;6.808;2022-08-30T13:12:32;3.20;;;0.70;;
68870;SDS011;55906;52.278;6.808;2022-08-30T13:15:14;4.10;;;0.80;;
68870;SDS011;55906;52.278;6.808;2022-08-30T13:17:44;4.00;;;0.60;;
68870;SDS011;55906;52.278;6.808;2022-08-30T13:20:22;2.55;;;0.60;;
68870;SDS011;55906;52.278;6.808;2022-08-30T13:23:00;4.07;;;0.65;;
68870;SDS011;55906;52.278;6.808;2022-08-30T13:25:30;1.70;;;0.43;;
68870;SDS011;55906;52.278;6.808;2022-08-30T13:27:58;2.85;;;0.60;;
68870;SDS011;55906;52.278;6.808;2022-08-30T13:30:27;2.37;;;0.50;;
68870;SDS011;55906;52.278;6.808;2022-08-30T13:32:54;2.92;;;0.57;;
68870;SDS011;55906;52.278;6.808;2022-08-30T13:35:21;5.40;;;0.88;;
68870;SDS011;55906;52.278;6.808;2022-08-30T13:37:48;4.28;;;0.60;;
68870;SDS011;55906;52.278;6.808;2022-08-30T13:40:15;2.38;;;0.60;;
68870;SDS011;55906;52.278;6.808;2022-08-30T13:42:42;2.47;;;0.60;;
68870;SDS011;55906;52.278;6.808;2022-08-30T13:45:09;2.30;;;0.50;;
68870;SDS011;55906;52.278;6.808;2022-08-30T13:47:38;2.40;;;0.55;;
68870;SDS011;55906;52.278;6.808;2022-08-30T13:50:05;4.35;;;0.60;;
68870;SDS011;55906;52.278;6.808;2022-08-30T13:52:32;4.07;;;0.60;;
68870;SDS011;55906;52.278;6.808;2022-08-30T13:54:59;2.00;;;0.50;;
68870;SDS011;55906;52.278;6.808;2022-08-30T13:57:27;2.30;;;0.50;;
68870;SDS011;55906;52.278;6.808;2022-08-30T13:59:55;1.75;;;0.40;;
68870;SDS011;55906;52.278;6.808;2022-08-30T14:02:22;3.30;;;0.63;;
68870;SDS011;55906;52.278;6.808;2022-08-30T14:04:50;3.78;;;0.60;;
68870;SDS011;55906;52.278;6.808;2022-08-30T14:07:16;2.93;;;0.53;;
68870;SDS011;55906;52.278;6.808;2022-08-30T14:09:43;2.30;;;0.70;;
68870;SDS011;55906;52.278;6.808;2022-08-30T14:12:09;3.22;;;0.60;;
68870;SDS011;55906;52.278;6.808;2022-08-30T14:14:36;1.80;;;0.35;;
68870;SDS011;55906;52.278;6.808;2022-08-30T14:17:03;3.72;;;0.57;;
68870;SDS011;55906;52.278;6.808;2022-08-30T14:19:30;2.47;;;0.60;;
68870;SDS011;55906;52.278;6.808;2022-08-30T14:21:58;4.28;;;0.73;;
68870;SDS011;55906;52.278;6.808;2022-08-30T14:24:24;3.00;;;0.70;;
68870;SDS011;55906;52.278;6.808;2022-08-30T14:26:51;2.40;;;0.70;;
68870;SDS011;55906;52.278;6.808;2022-08-30T14:29:19;3.67;;;0.85;;
68870;SDS011;55906;52.278;6.808;2022-08-30T14:31:47;3.13;;;0.90;;
68870;SDS011;55906;52.278;6.808;2022-08-30T14:34:14;2.55;;;0.60;;
68870;SDS011;55906;52.278;6.808;2022-08-30T14:36:42;2.78;;;0.60;;
68870;SDS011;55906;52.278;6.808;2022-08-30T14:39:13;2.50;;;0.50;;
68870;SDS011;55906;52.278;6.808;2022-08-30T14:41:43;2.78;;;0.60;;
68870;SDS011;55906;52.278;6.808;2022-08-30T14:44:11;2.20;;;0.60;;
68870;SDS011;55906;52.278;6.808;2022-08-30T14:46:39;2.30;;;0.50;;
68870;SDS011;55906;52.278;6.808;2022-08-30T14:49:06;2.63;;;0.60;;
68870;SDS011;55906;52.278;6.808;2022-08-30T14:51:32;2.70;;;0.68;;
68870;SDS011;55906;52.278;6.808;2022-08-30T14:53:59;2.50;;;0.60;;
68870;SDS011;55906;52.278;6.808;2022-08-30T14:56:27;1.70;;;0.43;;
68870;SDS011;55906;52.278;6.808;2022-08-30T14:58:54;2.85;;;0.55;;
68870;SDS011;55906;52.278;6.808;2022-08-30T15:01:24;2.60;;;0.50;;
68870;SDS011;55906;52.278;6.808;2022-08-30T15:03:51;2.78;;;0.60;;
68870;SDS011;55906;52.278;6.808;2022-08-30T15:06:18;2.53;;;0.70;;
68870;SDS011;55906;52.278;6.808;2022-08-30T15:08:45;2.73;;;0.60;;
68870;SDS011;55906;52.278;6.808;2022-08-30T15:11:13;2.97;;;0.60;;
68870;SDS011;55906;52.278;6.808;2022-08-30T15:13:42;2.35;;;0.47;;
68870;SDS011;55906;52.278;6.808;2022-08-30T15:16:10;2.97;;;0.50;;
68870;SDS011;55906;52.278;6.808;2022-08-30T15:18:38;5.00;;;0.70;;
68870;SDS011;55906;52.278;6.808;2022-08-30T15:21:05;1.70;;;0.47;;
68870;SDS011;55906;52.278;6.808;2022-08-30T15:23:31;3.08;;;0.73;;
68870;SDS011;55906;52.278;6.808;2022-08-30T15:25:58;2.00;;;0.60;;
68870;SDS011;55906;52.278;6.808;2022-08-30T15:28:25;3.05;;;0.68;;